Time;durP1;ratioP1;P1;durP2;ratioP2;P2;SDS_P1;SDS_P2;PMS_P1;PMS_P2;Temp;Humidity;BMP_temperature;BMP_pressure;BME280_temperature;BME280_humidity;BME280_pressure;Samples;Min_cycle;Max_cycle;Signal;HPM_P1;HPM_P2
2021/09/11 00:00:35;;;;;;;9.85;6.78;;;19.30;93.50;;;;;;5053282;28;20041;-88
2021/09/11 00:03:01;;;;;;;8.57;6.82;;;19.30;93.40;;;;;;5035818;28;20025;-88
2021/09/11 00:05:27;;;;;;;9.40;6.05;;;19.20;93.40;;;;;;5053312;28;20584;-87
2021/09/11 00:07:54;;;;;;;9.23;7.28;;;19.20;93.40;;;;;;5052394;28;20108;-88
2021/09/11 00:10:20;;;;;;;9.30;7.05;;;19.20;93.40;;;;;;5035445;28;20485;-88
2021/09/11 00:12:46;;;;;;;13.57;7.95;;;19.20;93.50;;;;;;5035043;28;20595;-88
2021/09/11 00:15:15;;;;;;;11.80;8.65;;;19.20;93.50;;;;;;5053351;28;20093;-89
2021/09/11 00:17:41;;;;;;;8.18;7.25;;;19.10;93.40;;;;;;5035746;28;20363;-89
2021/09/11 00:20:08;;;;;;;8.38;6.32;;;19.10;93.40;;;;;;5053400;28;20021;-88
2021/09/11 00:22:34;;;;;;;7.30;6.47;;;19.10;93.40;;;;;;5053400;28;20103;-88
2021/09/11 00:24:59;;;;;;;11.70;8.75;;;19.10;93.40;;;;;;5035192;28;20052;-88
2021/09/11 00:27:25;;;;;;;15.80;8.98;;;19.10;93.40;;;;;;5032193;28;20478;-88
2021/09/11 00:29:51;;;;;;;13.00;8.00;;;19.00;93.40;;;;;;5032035;28;20059;-88
2021/09/11 00:32:16;;;;;;;10.73;7.80;;;19.10;93.50;;;;;;5035077;28;20426;-88
2021/09/11 00:34:42;;;;;;;14.70;9.18;;;19.10;93.80;;;;;;5032905;28;20029;-88
2021/09/11 00:37:08;;;;;;;15.07;8.60;;;19.10;93.50;;;;;;5035098;28;20028;-88
2021/09/11 00:39:34;;;;;;;9.48;7.60;;;19.10;93.50;;;;;;5034995;28;20033;-88
2021/09/11 00:42:00;;;;;;;10.63;9.23;;;19.10;93.50;;;;;;5018711;28;20051;-88
2021/09/11 00:44:25;;;;;;;14.85;9.23;;;19.10;93.50;;;;;;5052803;28;20064;-88
2021/09/11 00:46:51;;;;;;;9.35;7.70;;;19.10;93.80;;;;;;5031586;28;20103;-88
2021/09/11 00:49:17;;;;;;;10.63;9.15;;;19.10;93.50;;;;;;5048185;28;20395;-87
2021/09/11 00:51:44;;;;;;;10.40;9.02;;;19.10;93.50;;;;;;5017886;28;20527;-88
2021/09/11 00:54:11;;;;;;;9.60;8.25;;;19.10;93.50;;;;;;5032827;28;20061;-88
2021/09/11 00:56:37;;;;;;;12.32;9.20;;;19.10;93.50;;;;;;5032926;28;20029;-88
2021/09/11 00:59:03;;;;;;;15.43;10.55;;;19.10;93.50;;;;;;5049489;28;20024;-87
2021/09/11 01:01:29;;;;;;;14.48;10.23;;;19.10;93.50;;;;;;5024096;28;20481;-88
2021/09/11 01:03:55;;;;;;;15.48;9.70;;;19.20;93.60;;;;;;5032664;28;20078;-88
2021/09/11 01:06:22;;;;;;;12.77;10.20;;;19.20;93.60;;;;;;5051360;28;20394;-88
2021/09/11 01:08:48;;;;;;;12.40;10.13;;;19.10;93.60;;;;;;5018268;28;20033;-88
2021/09/11 01:11:14;;;;;;;18.65;13.00;;;19.20;93.60;;;;;;5052571;28;20032;-88
2021/09/11 01:13:40;;;;;;;16.15;11.57;;;19.20;93.60;;;;;;5052718;28;20116;-88
2021/09/11 01:16:07;;;;;;;11.32;9.60;;;19.20;93.60;;;;;;5035167;28;20437;-88
2021/09/11 01:18:33;;;;;;;15.88;11.68;;;19.20;93.60;;;;;;5052647;28;20029;-88
2021/09/11 01:21:00;;;;;;;16.38;12.05;;;19.20;93.70;;;;;;5015996;28;20497;-88
2021/09/11 01:23:26;;;;;;;20.85;12.50;;;19.20;93.60;;;;;;5035385;28;20478;-88
2021/09/11 01:25:52;;;;;;;13.73;10.73;;;19.20;93.60;;;;;;5035340;28;20075;-88
2021/09/11 01:28:18;;;;;;;16.85;11.40;;;19.10;93.50;;;;;;5044254;28;20107;-88
2021/09/11 01:30:44;;;;;;;18.00;12.02;;;19.10;93.50;;;;;;5038374;28;20183;-88
2021/09/11 01:33:11;;;;;;;22.42;12.32;;;19.10;93.50;;;;;;5054885;28;20025;-88
2021/09/11 01:35:37;;;;;;;11.00;9.27;;;19.10;93.50;;;;;;5038221;28;20044;-87
2021/09/11 01:38:03;;;;;;;18.02;12.55;;;19.00;93.50;;;;;;5038374;28;20478;-88
2021/09/11 01:40:28;;;;;;;14.50;10.77;;;19.00;93.50;;;;;;5034984;28;20029;-88
2021/09/11 01:42:54;;;;;;;14.13;10.77;;;19.00;93.50;;;;;;5017588;28;20032;-88
2021/09/11 01:45:21;;;;;;;20.02;13.02;;;18.90;93.50;;;;;;5028723;28;20056;-88
2021/09/11 01:47:49;;;;;;;16.63;10.70;;;18.90;93.50;;;;;;5055410;28;20029;-89
2021/09/11 01:50:18;;;;;;;20.53;11.83;;;18.90;93.50;;;;;;5055329;28;20025;-88
2021/09/11 01:52:44;;;;;;;;;;;18.80;93.40;;;;;;5055849;28;20064;-88
2021/09/11 01:55:12;;;;;;;15.85;11.50;;;18.80;93.40;;;;;;5054934;28;20313;-88
2021/09/11 01:57:39;;;;;;;15.38;10.65;;;18.70;93.50;;;;;;5027243;28;20501;-88
2021/09/11 02:00:10;;;;;;;18.60;13.38;;;18.70;93.50;;;;;;5051763;28;20446;-88
2021/09/11 02:02:36;;;;;;;17.60;13.07;;;18.70;93.50;;;;;;5030928;28;20078;-88
2021/09/11 02:05:03;;;;;;;17.63;12.90;;;18.60;93.50;;;;;;5031940;28;20079;-89
2021/09/11 02:07:28;;;;;;;18.27;13.25;;;18.60;93.50;;;;;;5028851;28;20033;-88
2021/09/11 02:09:54;;;;;;;33.78;15.20;;;18.60;93.60;;;;;;5035305;28;20060;-88
2021/09/11 02:12:19;;;;;;;19.13;13.00;;;18.60;93.60;;;;;;5022031;28;20082;-87
2021/09/11 02:14:45;;;;;;;17.67;12.98;;;18.50;93.60;;;;;;5053933;28;20059;-87
2021/09/11 02:17:11;;;;;;;17.10;13.05;;;18.50;93.70;;;;;;5037892;28;20036;-88
2021/09/11 02:19:36;;;;;;;29.48;16.00;;;18.50;93.70;;;;;;5021415;28;20025;-88
2021/09/11 02:22:04;;;;;;;21.75;13.98;;;18.50;93.60;;;;;;5021203;28;20025;-88
2021/09/11 02:24:30;;;;;;;21.23;12.60;;;18.50;93.60;;;;;;5026054;28;20117;-88
2021/09/11 02:26:57;;;;;;;20.00;14.48;;;18.50;93.60;;;;;;5018334;28;20108;-88
2021/09/11 02:29:23;;;;;;;18.75;15.15;;;18.40;93.60;;;;;;5055633;28;20029;-89
2021/09/11 02:31:49;;;;;;;21.17;14.77;;;18.40;93.60;;;;;;5031615;28;20041;-89
2021/09/11 02:34:15;;;;;;;20.63;16.25;;;18.40;93.60;;;;;;5046999;28;20036;-88
2021/09/11 02:36:41;;;;;;;18.63;14.27;;;18.40;93.60;;;;;;5036637;28;20021;-88
2021/09/11 02:39:07;;;;;;;18.67;13.00;;;18.40;93.60;;;;;;5037584;28;20027;-90
2021/09/11 02:41:36;;;;;;;19.67;13.88;;;18.40;93.50;;;;;;5055302;28;20028;-89
2021/09/11 02:44:03;;;;;;;29.63;13.43;;;18.30;93.50;;;;;;5054855;28;20048;-89
2021/09/11 02:46:30;;;;;;;21.55;14.13;;;18.30;93.50;;;;;;5054970;28;20033;-89
2021/09/11 02:49:02;;;;;;;21.00;12.80;;;18.30;93.50;;;;;;5037171;28;20385;-89
2021/09/11 02:51:29;;;;;;;21.10;13.70;;;18.20;93.50;;;;;;5037089;28;20083;-87
2021/09/11 02:53:55;;;;;;;29.08;14.30;;;18.20;93.50;;;;;;5037115;28;20127;-88
2021/09/11 02:56:21;;;;;;;17.17;12.48;;;18.20;93.40;;;;;;5054800;28;20021;-88
2021/09/11 02:58:46;;;;;;;15.35;11.60;;;18.20;93.40;;;;;;5054959;28;20040;-88
2021/09/11 03:01:12;;;;;;;20.55;12.52;;;18.10;93.40;;;;;;5036854;28;20071;-86
2021/09/11 03:03:38;;;;;;;16.05;11.40;;;18.10;93.40;;;;;;5037181;28;20114;-89
2021/09/11 03:06:04;;;;;;;22.30;11.98;;;18.10;93.30;;;;;;5036790;28;20021;-88
2021/09/11 03:08:30;;;;;;;17.42;11.52;;;18.00;93.30;;;;;;5054639;28;20078;-88
2021/09/11 03:10:56;;;;;;;15.63;10.48;;;18.00;93.30;;;;;;5054588;28;20567;-88
2021/09/11 03:13:22;;;;;;;19.92;10.77;;;18.00;93.30;;;;;;5020298;28;20033;-88
2021/09/11 03:15:48;;;;;;;17.27;9.73;;;17.90;93.30;;;;;;5036910;28;20025;-88
2021/09/11 03:18:13;;;;;;;11.13;8.90;;;17.90;93.30;;;;;;5033104;28;20021;-88
2021/09/11 03:20:39;;;;;;;13.82;9.27;;;17.90;93.30;;;;;;5042436;28;20547;-88
2021/09/11 03:23:05;;;;;;;12.63;8.13;;;17.90;93.20;;;;;;5054354;28;20605;-88
2021/09/11 03:25:31;;;;;;;10.65;8.65;;;17.80;93.20;;;;;;5054302;28;20071;-88
2021/09/11 03:27:58;;;;;;;15.27;8.55;;;17.80;93.10;;;;;;5052950;28;20111;-88
2021/09/11 03:30:23;;;;;;;13.82;8.60;;;17.70;93.10;;;;;;5053923;28;20040;-89
2021/09/11 03:32:49;;;;;;;10.60;7.80;;;17.80;93.20;;;;;;5028683;28;20132;-88
2021/09/11 03:35:15;;;;;;;13.70;7.57;;;17.70;93.10;;;;;;5049653;28;20029;-88
2021/09/11 03:37:41;;;;;;;14.32;8.10;;;17.70;93.10;;;;;;5032508;28;20044;-88
2021/09/11 03:40:07;;;;;;;12.77;8.38;;;17.70;93.30;;;;;;5053726;28;20029;-88
2021/09/11 03:42:33;;;;;;;14.38;7.95;;;17.70;93.00;;;;;;5035758;28;20045;-88
2021/09/11 03:44:59;;;;;;;13.10;8.43;;;17.70;93.00;;;;;;5049689;28;20037;-88
2021/09/11 03:47:24;;;;;;;10.57;7.65;;;17.70;93.00;;;;;;5052841;28;20060;-89
2021/09/11 03:49:50;;;;;;;11.65;7.53;;;17.70;93.10;;;;;;5036124;28;20032;-89
2021/09/11 03:52:16;;;;;;;10.52;7.35;;;17.60;93.10;;;;;;5035786;28;20029;-89
2021/09/11 03:54:41;;;;;;;13.27;7.57;;;17.60;93.10;;;;;;5036107;28;20029;-89
2021/09/11 03:57:07;;;;;;;11.40;6.85;;;17.60;93.00;;;;;;5035876;28;20021;-88
2021/09/11 03:59:33;;;;;;;11.60;7.45;;;17.60;93.00;;;;;;5035726;28;20083;-88
2021/09/11 04:01:58;;;;;;;11.13;7.57;;;17.60;92.90;;;;;;5035851;28;20029;-88
2021/09/11 04:04:24;;;;;;;14.45;7.60;;;17.60;92.90;;;;;;5052512;28;20799;-88
2021/09/11 04:06:49;;;;;;;12.80;7.63;;;17.60;92.90;;;;;;5052368;28;20107;-88
2021/09/11 04:09:15;;;;;;;10.05;6.75;;;17.60;92.90;;;;;;5032735;28;20037;-88
2021/09/11 04:11:41;;;;;;;10.95;7.30;;;17.50;92.90;;;;;;5033181;28;20497;-88
2021/09/11 04:14:06;;;;;;;10.20;6.30;;;17.50;92.80;;;;;;5033085;28;20087;-89
2021/09/11 04:16:32;;;;;;;10.65;7.30;;;17.40;92.80;;;;;;5048914;28;20033;-88
2021/09/11 04:18:57;;;;;;;12.35;7.50;;;17.50;92.90;;;;;;5004296;28;20040;-88
2021/09/11 04:21:23;;;;;;;8.18;6.43;;;17.40;92.80;;;;;;5007873;28;20032;-88
2021/09/11 04:23:49;;;;;;;14.05;6.72;;;17.40;92.90;;;;;;5053059;28;20103;-88
2021/09/11 04:26:14;;;;;;;8.43;7.07;;;17.30;92.90;;;;;;5035535;28;20420;-89
2021/09/11 04:28:40;;;;;;;10.90;6.32;;;17.30;92.90;;;;;;5019010;28;20029;-89
2021/09/11 04:31:06;;;;;;;15.70;6.70;;;17.30;92.90;;;;;;5051800;28;20055;-88
2021/09/11 04:33:31;;;;;;;9.52;6.00;;;17.30;92.90;;;;;;5051827;28;20065;-88
2021/09/11 04:35:57;;;;;;;10.30;7.10;;;17.30;93.00;;;;;;5035456;28;20040;-89
2021/09/11 04:38:23;;;;;;;9.90;6.43;;;17.30;93.00;;;;;;5035292;28;20530;-89
2021/09/11 04:40:48;;;;;;;9.15;7.50;;;17.30;93.00;;;;;;5035131;28;20028;-89
2021/09/11 04:43:14;;;;;;;10.40;7.22;;;17.30;93.00;;;;;;5051962;28;20067;-89
2021/09/11 04:45:40;;;;;;;15.30;6.60;;;17.30;93.10;;;;;;5034984;28;20040;-88
2021/09/11 04:48:06;;;;;;;11.85;6.70;;;17.30;93.10;;;;;;5034762;28;20036;-89
2021/09/11 04:50:31;;;;;;;11.65;6.50;;;17.40;93.10;;;;;;5030089;28;20033;-88
2021/09/11 04:52:57;;;;;;;10.00;6.65;;;17.40;93.10;;;;;;5034115;28;20025;-88
2021/09/11 04:55:23;;;;;;;13.48;6.47;;;17.40;93.10;;;;;;5029453;28;20060;-88
2021/09/11 04:57:49;;;;;;;10.88;6.57;;;17.40;93.20;;;;;;5057862;28;20029;-87
2021/09/11 05:00:15;;;;;;;9.07;6.43;;;17.50;93.20;;;;;;5031688;28;20045;-88
2021/09/11 05:02:41;;;;;;;9.73;6.32;;;17.50;93.20;;;;;;5032477;28;20037;-88
2021/09/11 05:05:08;;;;;;;10.90;5.63;;;17.50;93.10;;;;;;5050172;28;20465;-88
2021/09/11 05:07:34;;;;;;;8.45;5.68;;;17.60;93.10;;;;;;5034654;28;20597;-88
2021/09/11 05:10:00;;;;;;;14.25;6.35;;;17.50;93.10;;;;;;5050555;28;20447;-88
2021/09/11 05:12:25;;;;;;;10.10;5.95;;;17.50;93.10;;;;;;5033883;28;20037;-88
2021/09/11 05:14:51;;;;;;;14.70;6.60;;;17.60;93.10;;;;;;5014248;28;20025;-89
2021/09/11 05:17:16;;;;;;;9.57;5.28;;;17.60;93.20;;;;;;5031298;28;20079;-89
2021/09/11 05:19:42;;;;;;;13.20;5.60;;;17.60;93.40;;;;;;5052203;28;20514;-89
2021/09/11 05:22:08;;;;;;;10.63;6.25;;;17.60;93.10;;;;;;5030832;28;20029;-89
2021/09/11 05:24:34;;;;;;;7.05;5.70;;;17.60;93.10;;;;;;5014959;28;20033;-88
2021/09/11 05:27:00;;;;;;;12.98;5.40;;;17.60;93.10;;;;;;5020801;28;20049;-88
2021/09/11 05:29:25;;;;;;;10.02;5.78;;;17.60;93.10;;;;;;5018119;28;20040;-88
2021/09/11 05:31:51;;;;;;;13.65;5.43;;;17.60;93.10;;;;;;5051575;28;20033;-89
2021/09/11 05:34:18;;;;;;;11.20;5.78;;;17.60;93.10;;;;;;5051436;28;20093;-88
2021/09/11 05:36:43;;;;;;;11.57;5.07;;;17.60;93.10;;;;;;5034933;28;20235;-88
2021/09/11 05:39:09;;;;;;;10.68;5.20;;;17.60;93.10;;;;;;5034851;28;20115;-89
2021/09/11 05:41:35;;;;;;;11.75;5.60;;;17.60;93.10;;;;;;5035084;28;20394;-89
2021/09/11 05:44:01;;;;;;;12.25;5.13;;;17.70;93.00;;;;;;5053043;28;20037;-88
2021/09/11 05:46:27;;;;;;;11.98;5.47;;;17.70;93.10;;;;;;5034773;28;20029;-89
2021/09/11 05:48:52;;;;;;;7.28;5.22;;;17.70;93.10;;;;;;5052946;28;20048;-89
2021/09/11 05:51:18;;;;;;;6.82;4.65;;;17.70;93.10;;;;;;5035872;28;20052;-88
2021/09/11 05:53:43;;;;;;;8.45;4.32;;;17.70;93.10;;;;;;5047273;28;20421;-89
2021/09/11 05:56:09;;;;;;;10.07;5.32;;;17.70;93.10;;;;;;5051781;28;20063;-89
2021/09/11 05:58:35;;;;;;;9.77;4.93;;;17.70;93.10;;;;;;5034673;28;20021;-89
2021/09/11 06:01:00;;;;;;;8.25;4.68;;;17.70;93.10;;;;;;5052391;28;20056;-89
2021/09/11 06:03:26;;;;;;;8.57;4.63;;;17.70;93.10;;;;;;5018205;28;20055;-89
2021/09/11 06:05:52;;;;;;;8.75;4.68;;;17.70;93.10;;;;;;5035021;28;20029;-89
2021/09/11 06:08:17;;;;;;;7.07;4.68;;;17.70;93.10;;;;;;5034908;28;20438;-88
2021/09/11 06:10:43;;;;;;;8.57;4.60;;;17.80;93.10;;;;;;5053407;28;20042;-89
2021/09/11 06:13:09;;;;;;;13.57;4.93;;;17.70;93.10;;;;;;5021879;28;20059;-89
2021/09/11 06:15:35;;;;;;;12.90;4.75;;;17.80;93.10;;;;;;5055336;28;20029;-88
2021/09/11 06:18:00;;;;;;;10.65;5.53;;;17.80;93.00;;;;;;5034180;28;20040;-88
2021/09/11 06:20:26;;;;;;;7.70;4.38;;;17.80;93.00;;;;;;5053743;28;20025;-90
2021/09/11 06:22:52;;;;;;;11.02;5.78;;;17.80;93.00;;;;;;5056172;28;20056;-89
2021/09/11 06:25:18;;;;;;;7.50;5.05;;;17.80;93.00;;;;;;5055040;28;20071;-88
2021/09/11 06:27:44;;;;;;;9.02;4.60;;;17.80;93.00;;;;;;5038130;28;20111;-89
2021/09/11 06:30:11;;;;;;;7.38;4.80;;;17.80;93.00;;;;;;5021517;28;20605;-89
2021/09/11 06:32:37;;;;;;;12.50;4.68;;;17.80;93.00;;;;;;5037887;28;20128;-89
2021/09/11 06:35:04;;;;;;;9.68;4.30;;;17.90;92.90;;;;;;5037807;28;20056;-88
2021/09/11 06:37:30;;;;;;;9.00;4.97;;;17.90;92.80;;;;;;5038050;28;20115;-88
2021/09/11 06:39:56;;;;;;;11.30;5.22;;;17.90;92.80;;;;;;5054509;28;20082;-88
2021/09/11 06:42:21;;;;;;;15.02;5.38;;;18.00;92.80;;;;;;5054298;28;20130;-89
2021/09/11 06:44:48;;;;;;;12.60;5.32;;;18.00;92.60;;;;;;5054161;28;20036;-87
2021/09/11 06:47:13;;;;;;;9.13;5.18;;;18.00;92.40;;;;;;5055335;28;20508;-89
2021/09/11 06:49:39;;;;;;;13.07;5.70;;;18.00;92.50;;;;;;5037655;28;20037;-89
2021/09/11 06:52:05;;;;;;;12.27;5.22;;;18.00;92.50;;;;;;5036136;28;20064;-88
2021/09/11 06:54:31;;;;;;;12.02;4.90;;;18.10;92.60;;;;;;5052750;28;20044;-89
2021/09/11 06:56:57;;;;;;;10.90;5.35;;;18.10;92.50;;;;;;5015744;28;20033;-88
2021/09/11 06:59:22;;;;;;;10.32;4.85;;;18.10;92.40;;;;;;5035737;28;20051;-89
2021/09/11 07:01:48;;;;;;;14.18;5.40;;;18.20;92.40;;;;;;5019450;28;20096;-88
2021/09/11 07:04:14;;;;;;;11.75;4.97;;;18.20;92.70;;;;;;5035352;28;20510;-89
2021/09/11 07:06:40;;;;;;;9.70;5.13;;;18.30;92.30;;;;;;5035569;28;20025;-88
2021/09/11 07:09:05;;;;;;;10.43;4.72;;;18.40;92.40;;;;;;5053433;28;20470;-88
2021/09/11 07:11:31;;;;;;;10.38;5.07;;;18.40;92.20;;;;;;5036992;28;20497;-88
2021/09/11 07:13:57;;;;;;;11.63;5.70;;;18.50;92.20;;;;;;5036680;28;20029;-88
2021/09/11 07:16:23;;;;;;;10.68;4.97;;;18.50;92.00;;;;;;5037299;28;20067;-88
2021/09/11 07:18:48;;;;;;;13.20;4.80;;;18.60;92.10;;;;;;5037131;28;20049;-88
2021/09/11 07:21:14;;;;;;;8.75;5.28;;;18.60;91.80;;;;;;5036490;28;20029;-87
2021/09/11 07:23:40;;;;;;;11.00;5.05;;;18.60;91.70;;;;;;5054240;28;20476;-87
2021/09/11 07:26:05;;;;;;;10.68;5.65;;;18.70;91.80;;;;;;5018867;28;20039;-87
2021/09/11 07:28:31;;;;;;;11.38;5.40;;;18.70;91.70;;;;;;5040490;28;20041;-87
2021/09/11 07:30:56;;;;;;;13.93;5.63;;;18.80;91.70;;;;;;5031714;28;20131;-87
2021/09/11 07:33:22;;;;;;;8.80;5.43;;;18.80;91.70;;;;;;5034180;28;20479;-86
2021/09/11 07:35:48;;;;;;;10.20;5.05;;;18.90;91.60;;;;;;5053862;28;20025;-86
2021/09/11 07:38:15;;;;;;;12.57;5.18;;;18.90;91.60;;;;;;5016620;28;20026;-87
2021/09/11 07:40:42;;;;;;;11.23;6.00;;;19.00;91.50;;;;;;5016545;28;20025;-87
2021/09/11 07:43:09;;;;;;;13.95;5.70;;;19.10;91.30;;;;;;5034232;28;20026;-87
2021/09/11 07:45:39;;;;;;;12.70;5.90;;;19.00;91.20;;;;;;5000453;28;20029;-86
2021/09/11 07:48:06;;;;;;;10.88;5.78;;;19.00;91.00;;;;;;5036182;28;20029;-86
2021/09/11 07:50:35;;;;;;;12.38;6.10;;;19.00;91.10;;;;;;5054047;28;20082;-85
2021/09/11 07:53:02;;;;;;;7.65;5.20;;;19.00;91.10;;;;;;5036254;28;20025;-85
2021/09/11 07:55:28;;;;;;;9.48;5.45;;;19.00;91.10;;;;;;5052643;28;20041;-86
2021/09/11 07:57:54;;;;;;;8.88;5.25;;;19.10;91.20;;;;;;5036419;28;20105;-86
2021/09/11 08:00:19;;;;;;;12.80;5.38;;;19.10;91.00;;;;;;5036129;28;20132;-87
2021/09/11 08:02:45;;;;;;;13.05;5.78;;;19.20;91.00;;;;;;5052835;28;20025;-87
2021/09/11 08:05:12;;;;;;;12.30;5.70;;;19.20;90.90;;;;;;5068013;28;20032;-87
2021/09/11 08:07:38;;;;;;;12.27;6.00;;;19.20;90.60;;;;;;5056153;28;20034;-87
2021/09/11 08:10:03;;;;;;;9.93;5.55;;;19.30;90.70;;;;;;5055997;28;20119;-86
2021/09/11 08:12:29;;;;;;;13.60;6.35;;;19.30;90.70;;;;;;5072543;28;20037;-86
2021/09/11 08:14:55;;;;;;;11.77;5.53;;;19.40;90.70;;;;;;5048695;28;20068;-86
2021/09/11 08:17:21;;;;;;;11.82;5.25;;;19.50;90.70;;;;;;5053534;28;20021;-87
2021/09/11 08:19:47;;;;;;;11.18;5.82;;;19.60;90.70;;;;;;5019465;28;20032;-86
2021/09/11 08:22:12;;;;;;;12.52;6.43;;;19.60;90.50;;;;;;5035731;28;20600;-86
2021/09/11 08:24:38;;;;;;;10.75;5.85;;;19.60;90.40;;;;;;5035725;28;20604;-86
2021/09/11 08:27:04;;;;;;;12.35;5.88;;;19.70;90.10;;;;;;5032055;28;20017;-86
2021/09/11 08:29:29;;;;;;;12.55;6.70;;;19.70;90.20;;;;;;5032555;28;20033;-86
2021/09/11 08:31:55;;;;;;;11.15;6.07;;;19.70;90.20;;;;;;5035546;28;20508;-86
2021/09/11 08:34:20;;;;;;;9.55;5.85;;;19.70;90.20;;;;;;5052506;28;20029;-86
2021/09/11 08:36:46;;;;;;;13.75;6.60;;;19.80;90.30;;;;;;5016089;28;20061;-87
2021/09/11 08:39:12;;;;;;;8.82;5.57;;;19.80;90.00;;;;;;5032127;28;20036;-87
2021/09/11 08:41:37;;;;;;;10.20;6.50;;;19.80;90.10;;;;;;5032462;28;20030;-87
2021/09/11 08:44:03;;;;;;;10.85;6.38;;;19.90;90.00;;;;;;5039878;28;20025;-86
2021/09/11 08:46:29;;;;;;;12.40;6.32;;;19.90;89.80;;;;;;5052000;28;20033;-86
2021/09/11 08:48:55;;;;;;;10.20;5.40;;;20.00;89.70;;;;;;5035067;28;20025;-85
2021/09/11 08:51:23;;;;;;;11.23;6.45;;;20.10;89.40;;;;;;5052054;28;20035;-86
2021/09/11 08:53:48;;;;;;;11.45;6.10;;;20.20;89.00;;;;;;5052987;28;20029;-86
2021/09/11 08:56:14;;;;;;;10.38;6.07;;;20.20;88.50;;;;;;5052943;28;20039;-85
2021/09/11 08:58:40;;;;;;;8.85;5.75;;;20.20;88.40;;;;;;5031822;28;20546;-88
2021/09/11 09:01:05;;;;;;;11.05;5.18;;;20.30;88.90;;;;;;5031999;28;20098;-90
2021/09/11 09:03:40;;;;;;;9.23;5.60;;;20.40;88.90;;;;;;5034879;28;20029;-89
2021/09/11 09:06:29;;;;;;;10.73;6.07;;;20.40;88.50;;;;;;5053127;28;20470;-88
2021/09/11 09:09:14;;;;;;;11.43;5.97;;;20.50;88.40;;;;;;5052974;28;20025;-88
2021/09/11 09:11:42;;;;;;;9.95;5.85;;;20.70;87.60;;;;;;5052695;28;20066;-88
2021/09/11 09:14:14;;;;;;;9.15;5.50;;;20.80;87.00;;;;;;5035304;28;20043;-89
2021/09/11 09:16:45;;;;;;;8.23;5.30;;;20.90;87.00;;;;;;5052807;28;20037;-89
2021/09/11 09:19:12;;;;;;;11.48;5.60;;;21.00;87.10;;;;;;5052911;28;20097;-88
2021/09/11 09:21:40;;;;;;;12.88;5.55;;;21.30;86.30;;;;;;5034828;28;20032;-88
2021/09/11 09:24:10;;;;;;;8.93;4.85;;;21.40;85.80;;;;;;5035215;28;20025;-89
2021/09/11 09:26:54;;;;;;;8.40;5.45;;;21.50;85.80;;;;;;5034597;28;20060;-88
2021/09/11 09:29:22;;;;;;;10.55;4.88;;;21.60;85.70;;;;;;5052974;28;20033;-85
2021/09/11 09:31:50;;;;;;;7.57;5.00;;;21.70;85.20;;;;;;5052875;28;20103;-88
2021/09/11 09:34:30;;;;;;;5.45;4.22;;;21.70;84.80;;;;;;5059575;28;20025;-87
2021/09/11 09:36:57;;;;;;;10.80;5.18;;;21.80;84.40;;;;;;5038042;28;20490;-87
2021/09/11 09:39:27;;;;;;;7.83;4.27;;;21.80;83.30;;;;;;5015059;28;20034;-89
2021/09/11 09:42:02;;;;;;;8.98;4.25;;;21.80;83.80;;;;;;5015392;28;20280;-89
2021/09/11 09:44:28;;;;;;;8.93;4.15;;;22.00;83.70;;;;;;5047928;28;20089;-83
2021/09/11 09:46:53;;;;;;;10.57;4.18;;;22.00;82.70;;;;;;5017489;28;20167;-83
2021/09/11 09:49:22;;;;;;;7.70;3.90;;;22.10;82.60;;;;;;5018010;28;20026;-83
2021/09/11 09:51:49;;;;;;;4.90;3.80;;;22.20;82.30;;;;;;5046629;28;20040;-83
2021/09/11 09:54:16;;;;;;;8.90;4.15;;;22.20;81.90;;;;;;5059057;28;20769;-83
2021/09/11 09:56:42;;;;;;;5.60;3.88;;;22.20;81.80;;;;;;5055796;28;20083;-83
2021/09/11 09:59:09;;;;;;;10.68;4.28;;;22.00;81.90;;;;;;5037654;28;20032;-83
2021/09/11 10:01:36;;;;;;;6.68;3.25;;;22.00;82.00;;;;;;5054496;28;20093;-83
2021/09/11 10:04:16;;;;;;;7.80;4.00;;;21.90;82.50;;;;;;5056099;28;20029;-83
2021/09/11 10:06:45;;;;;;;13.43;4.80;;;22.00;82.80;;;;;;5036166;28;20021;-83
2021/09/11 10:09:14;;;;;;;8.68;3.75;;;22.00;82.70;;;;;;5039260;28;20032;-83
2021/09/11 10:11:40;;;;;;;;;;;22.10;82.40;;;;;;5037761;28;20405;-83
2021/09/11 10:14:14;;;;;;;8.45;3.97;;;22.10;82.20;;;;;;5053841;28;19911;-83
2021/09/11 10:16:43;;;;;;;8.40;3.92;;;22.10;81.90;;;;;;5020443;28;20021;-85
2021/09/11 10:19:23;;;;;;;8.43;4.18;;;22.10;82.00;;;;;;5037368;28;20017;-81
2021/09/11 10:21:50;;;;;;;8.40;4.47;;;22.00;81.20;;;;;;5031647;28;20039;-81
2021/09/11 10:24:23;;;;;;;7.80;4.50;;;22.00;81.70;;;;;;5034199;28;20029;-81
2021/09/11 10:26:53;;;;;;;7.55;4.60;;;22.00;82.00;;;;;;5018014;28;20347;-81
2021/09/11 10:29:34;;;;;;;11.23;4.97;;;22.10;81.70;;;;;;5034454;28;20029;-81
2021/09/11 10:32:04;;;;;;;5.82;4.20;;;22.10;82.20;;;;;;5017780;28;20061;-81
2021/09/11 10:35:08;;;;;;;8.20;4.75;;;22.10;82.00;;;;;;5017601;28;20022;-81
2021/09/11 10:37:49;;;;;;;6.43;4.43;;;22.00;82.70;;;;;;5035331;28;20025;-81
2021/09/11 10:40:27;;;;;;;6.55;4.57;;;21.90;82.60;;;;;;5017849;28;20116;-82
2021/09/11 10:43:06;;;;;;;6.30;4.65;;;21.90;83.20;;;;;;5017961;28;20021;-81
2021/09/11 10:45:44;;;;;;;9.05;4.18;;;21.90;82.60;;;;;;5017675;28;20390;-81
2021/09/11 10:48:28;;;;;;;7.03;4.38;;;21.90;82.90;;;;;;5035963;28;20104;-81
2021/09/11 10:50:54;;;;;;;9.70;4.95;;;21.90;82.50;;;;;;5035152;28;20044;-81
2021/09/11 10:53:22;;;;;;;7.47;4.72;;;21.90;81.90;;;;;;5037208;28;20025;-81
2021/09/11 10:55:48;;;;;;;11.43;4.38;;;21.90;82.50;;;;;;5036349;28;20029;-81
2021/09/11 10:58:24;;;;;;;7.72;4.35;;;21.90;82.60;;;;;;5053858;28;20025;-81
2021/09/11 11:01:01;;;;;;;10.70;5.38;;;21.80;82.10;;;;;;5020702;28;20322;-81
2021/09/11 11:03:27;;;;;;;7.63;4.43;;;21.80;82.20;;;;;;5037263;28;20539;-81
2021/09/11 11:06:05;;;;;;;6.05;4.85;;;21.70;82.50;;;;;;5034472;28;20141;-81
2021/09/11 11:08:32;;;;;;;7.50;4.97;;;21.80;82.70;;;;;;5054487;28;20536;-81
2021/09/11 11:11:02;;;;;;;7.05;4.53;;;21.80;81.60;;;;;;5038090;28;20040;-81
2021/09/11 11:13:28;;;;;;;8.48;4.15;;;21.70;82.30;;;;;;5034673;28;20053;-81
2021/09/11 11:15:56;;;;;;;6.45;4.25;;;21.70;82.70;;;;;;5032931;28;20030;-81
2021/09/11 11:18:27;;;;;;;9.48;4.40;;;21.80;82.20;;;;;;5036574;28;20059;-81
2021/09/11 11:20:54;;;;;;;7.88;4.40;;;21.80;82.40;;;;;;5033704;28;20663;-81
2021/09/11 11:23:22;;;;;;;7.38;4.93;;;21.80;82.00;;;;;;5035299;28;20033;-81
2021/09/11 11:25:50;;;;;;;8.35;4.63;;;21.80;82.20;;;;;;5001067;28;20079;-81
2021/09/11 11:28:18;;;;;;;7.53;4.25;;;21.80;81.70;;;;;;5045088;28;20474;-82
2021/09/11 11:30:44;;;;;;;7.57;3.83;;;21.80;82.10;;;;;;5054041;28;20033;-82
2021/09/11 11:33:11;;;;;;;8.20;4.70;;;21.80;82.60;;;;;;5049512;28;20029;-83
2021/09/11 11:35:41;;;;;;;5.88;3.75;;;21.90;82.60;;;;;;5017607;28;20029;-83
2021/09/11 11:38:08;;;;;;;4.88;4.35;;;22.00;82.90;;;;;;5054342;28;20017;-82
2021/09/11 11:40:34;;;;;;;7.90;4.22;;;22.20;82.00;;;;;;5040140;28;20489;-79
2021/09/11 11:43:05;;;;;;;6.93;4.18;;;22.30;81.40;;;;;;5051385;28;20094;-79
2021/09/11 11:45:33;;;;;;;6.45;3.88;;;22.40;80.50;;;;;;5052378;28;20020;-79
2021/09/11 11:48:12;;;;;;;4.18;3.70;;;22.40;80.10;;;;;;5016128;28;20040;-79
2021/09/11 11:50:40;;;;;;;5.90;3.90;;;22.50;80.10;;;;;;5050053;28;20834;-79
2021/09/11 11:53:06;;;;;;;;;;;22.60;80.20;;;;;;5032053;28;20490;-78
2021/09/11 11:55:35;;;;;;;8.73;3.55;;;22.60;79.50;;;;;;5015563;28;20000;-78
2021/09/11 11:58:08;;;;;;;;;;;22.60;79.50;;;;;;5043212;28;20025;-78
2021/09/11 12:00:40;;;;;;;4.32;3.08;;;22.70;79.60;;;;;;5052677;28;20341;-78
2021/09/11 12:03:06;;;;;;;4.22;3.13;;;22.70;78.70;;;;;;5053034;28;20072;-79
2021/09/11 12:05:32;;;;;;;4.10;2.67;;;22.70;78.90;;;;;;5018551;28;20060;-78
2021/09/11 12:08:02;;;;;;;6.25;3.10;;;22.80;78.70;;;;;;5033983;28;20041;-78
2021/09/11 12:10:30;;;;;;;4.40;3.00;;;22.80;78.70;;;;;;5034763;28;20494;-78
2021/09/11 12:13:09;;;;;;;3.33;2.42;;;22.80;78.40;;;;;;5033553;28;20124;-77
2021/09/11 12:15:35;;;;;;;;;;;22.90;78.40;;;;;;5050639;28;20044;-77
2021/09/11 12:18:13;;;;;;;7.15;3.05;;;22.90;78.30;;;;;;5029916;28;19996;-77
2021/09/11 12:20:45;;;;;;;4.97;3.13;;;23.00;78.90;;;;;;5051213;28;20388;-77
2021/09/11 12:23:27;;;;;;;5.63;2.95;;;23.00;78.60;;;;;;5032761;28;20662;-77
2021/09/11 12:26:04;;;;;;;7.03;2.72;;;23.00;78.50;;;;;;5046738;28;20032;-83
2021/09/11 12:28:48;;;;;;;5.18;3.15;;;23.00;78.00;;;;;;5052188;28;20082;-83
2021/09/11 12:31:20;;;;;;;4.18;2.83;;;22.90;77.80;;;;;;5034916;28;20136;-82
2021/09/11 12:33:54;;;;;;;5.85;3.13;;;22.80;77.80;;;;;;5034874;28;20064;-82
2021/09/11 12:36:39;;;;;;;4.72;3.17;;;22.70;79.10;;;;;;5053078;28;20778;-82
2021/09/11 12:39:16;;;;;;;9.30;2.95;;;22.70;79.10;;;;;;5035310;28;20047;-82
2021/09/11 12:41:44;;;;;;;5.28;2.90;;;22.70;79.00;;;;;;5035120;28;20028;-82